Time,TemperatureF,DewpointF,PressureIn,WindDirection,WindDirectionDegrees,WindSpeedMPH,WindSpeedGustMPH,Humidity,HourlyPrecipIn,Conditions,Clouds,dailyrainin,SoftwareType,DateUTC
2013-03-05 00:00:00,30.0,20.0,30.01,NNE,22,0.0,0.0,66,0.00,CLR,,0.00,WeatherDisplay:10.37,2013-03-05 05:00:00,
2013-03-05 00:05:00,30.0,20.0,30.01,NNE,22,0.0,0.0,66,0.00,CLR,,0.00,WeatherDisplay:10.37,2013-03-05 05:05:00,
2013-03-05 00:10:00,30.0,20.0,30.01,NNE,22,0.0,0.0,66,0.00,CLR,,0.00,WeatherDisplay:10.37,2013-03-05 05:10:00,
2013-03-05 00:15:00,30.0,20.0,30.01,NNE,22,0.0,0.0,66,0.00,CLR,,0.00,WeatherDisplay:10.37,2013-03-05 05:15:00,
2013-03-05 00:20:00,29.5,20.9,30.01,NNE,22,0.0,0.0,70,0.00,CLR,,0.00,WeatherDisplay:10.37,2013-03-05 05:20:00,
2013-03-05 00:25:00,29.5,20.9,30.01,NNE,22,0.0,0.0,70,0.00,CLR,,0.00,WeatherDisplay:10.37,2013-03-05 05:25:00,
2013-03-05 00:30:00,29.3,21.1,30.01,NNE,22,0.0,0.0,71,0.00,CLR,,0.00,WeatherDisplay:10.37,2013-03-05 05:30:00,
2013-03-05 00:35:00,29.3,21.4,30.01,NNE,22,0.0,0.0,72,0.00,CLR,,0.00,WeatherDisplay:10.37,2013-03-05 05:35:00,
2013-03-05 00:40:00,29.3,21.4,30.01,NNE,22,0.0,0.0,72,0.00,CLR,,0.00,WeatherDisplay:10.37,2013-03-05 05:40:00,
2013-03-05 00:45:00,29.5,21.6,30.00,NNE,22,0.0,0.0,72,0.00,CLR,,0.00,WeatherDisplay:10.37,2013-03-05 05:45:00,
2013-03-05 00:50:00,29.5,21.9,30.00,NNE,22,0.0,0.0,73,0.00,CLR,,0.00,WeatherDisplay:10.37,2013-03-05 05:50:00,
2013-03-05 00:55:00,29.7,22.4,30.00,NNE,22,0.0,0.0,74,0.00,CLR,,0.00,WeatherDisplay:10.37,2013-03-05 05:55:00,
2013-03-05 01:00:00,29.8,22.6,29.99,NNE,22,3.5,3.5,74,0.00,CLR,,0.00,WeatherDisplay:10.37,2013-03-05 06:00:00,
2013-03-05 01:05:00,30.0,23.1,29.98,NNE,22,1.1,1.1,75,0.00,CLR,,0.00,WeatherDisplay:10.37,2013-03-05 06:05:00,
2013-03-05 01:10:00,30.0,23.4,29.98,NNE,22,0.0,0.0,76,0.00,CLR,,0.00,WeatherDisplay:10.37,2013-03-05 06:10:00,
2013-03-05 01:15:00,30.0,23.7,29.98,NNE,22,0.0,0.0,77,0.00,CLR,,0.00,WeatherDisplay:10.37,2013-03-05 06:15:00,
2013-03-05 01:20:00,30.0,23.7,29.98,NNE,22,3.5,3.5,77,0.00,CLR,,0.00,WeatherDisplay:10.37,2013-03-05 06:20:00,
2013-03-05 01:25:00,30.0,24.3,29.99,NNE,22,2.3,2.8,79,0.00,CLR,,0.00,WeatherDisplay:10.37,2013-03-05 06:25:00,
2013-03-05 01:30:00,30.0,24.3,30.01,NNE,22,4.6,0.0,79,0.00,CLR,,0.00,WeatherDisplay:10.37,2013-03-05 06:30:00,
2013-03-05 01:35:00,30.0,24.3,30.01,NNE,22,2.2,2.2,79,0.00,CLR,,0.00,WeatherDisplay:10.37,2013-03-05 06:35:00,
2013-03-05 01:40:00,30.0,24.3,30.01,NNE,22,0.0,0.0,79,0.00,CLR,,0.00,WeatherDisplay:10.37,2013-03-05 06:40:00,
2013-03-05 01:45:00,30.2,24.5,30.01,NNE,22,0.0,0.0,79,0.00,CLR,,0.00,WeatherDisplay:10.37,2013-03-05 06:45:00,
2013-03-05 01:50:00,30.6,24.8,30.01,NNE,22,0.0,0.0,79,0.00,CLR,,0.00,WeatherDisplay:10.37,2013-03-05 06:50:00,
2013-03-05 01:55:00,30.6,24.8,30.01,NNE,22,0.0,0.0,79,0.00,CLR,,0.00,WeatherDisplay:10.37,2013-03-05 06:55:00,
2013-03-05 02:00:00,30.7,24.7,30.00,NNE,22,0.0,0.0,78,0.00,CLR,,0.00,WeatherDisplay:10.37,2013-03-05 07:00:00,
2013-03-05 02:05:00,30.7,24.7,30.01,NNE,22,0.0,0.0,78,0.00,CLR,,0.00,WeatherDisplay:10.37,2013-03-05 07:05:00,
2013-03-05 02:11:00,30.9,24.9,30.00,NNE,22,0.0,0.0,78,0.00,CLR,,0.00,WeatherDisplay:10.37,2013-03-05 07:11:00,
2013-03-05 02:16:00,31.1,25.0,30.01,NNE,22,0.0,0.0,78,0.00,CLR,,0.00,WeatherDisplay:10.37,2013-03-05 07:16:00,
2013-03-05 02:21:00,31.1,25.3,30.01,NNE,22,0.0,0.0,79,0.00,CLR,,0.00,WeatherDisplay:10.37,2013-03-05 07:21:00,
2013-03-05 02:26:00,31.3,25.8,30.00,NNE,22,0.0,0.0,80,0.00,CLR,,0.00,WeatherDisplay:10.37,2013-03-05 07:26:00,
2013-03-05 02:31:00,31.3,25.8,30.00,NNE,22,0.0,0.0,80,0.00,CLR,,0.00,WeatherDisplay:10.37,2013-03-05 07:31:00,
2013-03-05 02:36:00,31.3,25.8,30.00,NNE,22,0.0,0.0,80,0.00,CLR,,0.00,WeatherDisplay:10.37,2013-03-05 07:36:00,
2013-03-05 02:41:00,31.3,25.8,30.00,NNE,22,0.0,0.0,80,0.00,CLR,,0.00,WeatherDisplay:10.37,2013-03-05 07:41:00,
2013-03-05 02:46:00,31.5,26.3,29.99,NNE,22,0.0,0.0,81,0.00,CLR,,0.00,WeatherDisplay:10.37,2013-03-05 07:46:00,
2013-03-05 02:51:00,31.3,26.1,29.99,NNE,22,0.0,0.0,81,0.00,CLR,,0.00,WeatherDisplay:10.37,2013-03-05 07:51:00,
2013-03-05 02:56:00,31.3,26.1,29.99,NNE,22,0.0,0.0,81,0.00,CLR,,0.00,WeatherDisplay:10.37,2013-03-05 07:56:00,
2013-03-05 03:01:00,31.3,26.1,29.99,NNE,22,0.0,0.0,81,0.00,CLR,,0.00,WeatherDisplay:10.37,2013-03-05 08:01:00,
2013-03-05 03:06:00,31.3,26.4,29.99,NNE,22,0.0,0.0,82,0.00,CLR,,0.00,WeatherDisplay:10.37,2013-03-05 08:06:00,
2013-03-05 03:11:00,31.3,26.7,29.98,NNE,22,0.0,0.0,83,0.00,CLR,,0.00,WeatherDisplay:10.37,2013-03-05 08:11:00,
2013-03-05 03:16:00,31.5,26.9,29.99,NNE,22,0.0,0.0,83,0.00,CLR,,0.00,WeatherDisplay:10.37,2013-03-05 08:16:00,
2013-03-05 03:21:00,31.6,27.1,29.98,NNE,22,0.0,0.0,83,0.00,CLR,,0.00,WeatherDisplay:10.37,2013-03-05 08:21:00,
2013-03-05 03:26:00,31.6,27.1,29.98,NNE,22,0.0,0.0,83,0.00,CLR,,0.00,WeatherDisplay:10.37,2013-03-05 08:26:00,
2013-03-05 03:31:00,31.6,27.1,29.98,NNE,22,0.0,0.0,83,0.00,CLR,,0.00,WeatherDisplay:10.37,2013-03-05 08:31:00,
2013-03-05 03:36:00,31.6,27.1,29.98,NNE,22,0.0,0.0,83,0.00,CLR,,0.00,WeatherDisplay:10.37,2013-03-05 08:36:00,
2013-03-05 03:41:00,31.6,27.1,29.98,NNE,22,0.0,0.0,83,0.00,CLR,,0.00,WeatherDisplay:10.37,2013-03-05 08:41:00,
2013-03-05 03:46:00,31.6,27.1,29.97,NNE,22,0.0,0.0,83,0.00,CLR,,0.00,WeatherDisplay:10.37,2013-03-05 08:46:00,
2013-03-05 03:51:00,31.6,27.1,29.97,NNE,22,0.0,0.0,83,0.00,CLR,,0.00,WeatherDisplay:10.37,2013-03-05 08:51:00,
2013-03-05 03:56:00,31.6,27.1,29.97,NNE,22,0.0,0.0,83,0.00,CLR,,0.00,WeatherDisplay:10.37,2013-03-05 08:56:00,
2013-03-05 04:01:00,31.6,27.1,29.97,NNE,22,0.0,0.0,83,0.00,CLR,,0.00,WeatherDisplay:10.37,2013-03-05 09:01:00,
2013-03-05 04:06:00,31.6,27.1,29.97,NNE,22,0.0,0.0,83,0.00,CLR,,0.00,WeatherDisplay:10.37,2013-03-05 09:06:00,
2013-03-05 04:11:00,31.8,27.2,29.97,NNE,22,0.0,0.0,83,0.00,CLR,,0.00,WeatherDisplay:10.37,2013-03-05 09:11:00,
2013-03-05 04:16:00,31.8,27.2,29.96,NNE,22,0.0,0.0,83,0.00,CLR,,0.00,WeatherDisplay:10.37,2013-03-05 09:16:00,
2013-03-05 04:21:00,31.8,27.2,29.96,NNE,22,0.0,0.0,83,0.00,CLR,,0.00,WeatherDisplay:10.37,2013-03-05 09:21:00,
2013-03-05 04:26:00,31.8,27.5,29.96,NNE,22,0.0,0.0,84,0.00,CLR,,0.00,WeatherDisplay:10.37,2013-03-05 09:26:00,
2013-03-05 04:31:00,31.8,27.2,29.96,NNE,22,0.0,0.0,83,0.00,CLR,,0.00,WeatherDisplay:10.37,2013-03-05 09:31:00,
2013-03-05 04:36:00,31.8,27.5,29.95,NNE,22,0.0,0.0,84,0.00,CLR,,0.00,WeatherDisplay:10.37,2013-03-05 09:36:00,
2013-03-05 04:41:00,31.8,27.5,29.96,NNE,22,0.0,0.0,84,0.00,CLR,,0.00,WeatherDisplay:10.37,2013-03-05 09:41:00,
2013-03-05 04:46:00,31.8,27.5,29.96,NNE,22,0.0,0.0,84,0.00,CLR,,0.00,WeatherDisplay:10.37,2013-03-05 09:46:00,
2013-03-05 04:51:00,31.8,27.5,29.96,NNE,22,0.0,0.0,84,0.00,CLR,,0.00,WeatherDisplay:10.37,2013-03-05 09:51:00,
2013-03-05 04:56:00,31.8,27.5,29.96,NNE,22,0.0,0.0,84,0.00,CLR,,0.00,WeatherDisplay:10.37,2013-03-05 09:56:00,
2013-03-05 05:01:00,31.8,27.5,29.96,NNE,22,0.0,0.0,84,0.00,CLR,,0.00,WeatherDisplay:10.37,2013-03-05 10:01:00,
2013-03-05 05:06:00,31.8,27.5,29.96,NNE,22,0.0,0.0,84,0.00,CLR,,0.00,WeatherDisplay:10.37,2013-03-05 10:06:00,
2013-03-05 05:11:00,31.8,27.5,29.96,NNE,22,0.0,0.0,84,0.00,CLR,,0.00,WeatherDisplay:10.37,2013-03-05 10:11:00,
2013-03-05 05:16:00,31.8,27.5,29.96,NNE,22,0.0,0.0,84,0.00,CLR,,0.00,WeatherDisplay:10.37,2013-03-05 10:16:00,
2013-03-05 05:21:00,31.8,27.8,29.95,NNE,22,0.0,0.0,85,0.00,CLR,,0.00,WeatherDisplay:10.37,2013-03-05 10:21:00,
2013-03-05 05:26:00,31.8,27.8,29.95,NNE,22,0.0,0.0,85,0.00,CLR,,0.00,WeatherDisplay:10.37,2013-03-05 10:26:00,
2013-03-05 05:31:00,32.0,28.0,29.95,NNE,22,0.0,0.0,85,0.00,CLR,,0.00,WeatherDisplay:10.37,2013-03-05 10:31:00,
2013-03-05 05:36:00,32.0,28.0,29.95,NNE,22,0.0,0.0,85,0.00,CLR,,0.00,WeatherDisplay:10.37,2013-03-05 10:36:00,
2013-03-05 05:41:00,31.8,28.1,29.95,NNE,22,0.0,0.0,86,0.00,CLR,,0.00,WeatherDisplay:10.37,2013-03-05 10:41:00,
2013-03-05 05:46:00,31.8,28.1,29.95,NNE,22,0.0,0.0,86,0.00,CLR,,0.00,WeatherDisplay:10.37,2013-03-05 10:46:00,
2013-03-05 05:51:00,31.8,28.1,29.95,NNE,22,0.0,0.0,86,0.00,CLR,,0.00,WeatherDisplay:10.37,2013-03-05 10:51:00,
2013-03-05 05:56:00,31.8,28.1,29.96,NNE,22,0.0,0.0,86,0.00,CLR,,0.00,WeatherDisplay:10.37,2013-03-05 10:56:00,
2013-03-05 06:01:00,32.0,28.3,29.95,NNE,22,0.0,0.0,86,0.00,CLR,,0.00,WeatherDisplay:10.37,2013-03-05 11:01:00,
2013-03-05 06:06:00,32.0,28.3,29.95,NNE,22,0.0,0.0,86,0.00,CLR,,0.00,WeatherDisplay:10.37,2013-03-05 11:06:00,
2013-03-05 06:11:00,31.8,28.1,29.94,NNE,22,0.0,0.0,86,0.00,CLR,,0.00,WeatherDisplay:10.37,2013-03-05 11:11:00,
2013-03-05 06:16:00,31.8,28.1,29.94,NNE,22,0.0,0.0,86,0.00,CLR,,0.00,WeatherDisplay:10.37,2013-03-05 11:16:00,
2013-03-05 06:21:00,31.8,28.1,29.94,NNE,22,0.0,0.0,86,0.00,CLR,,0.00,WeatherDisplay:10.37,2013-03-05 11:21:00,
2013-03-05 06:26:00,31.6,27.9,29.95,NNE,22,0.0,0.0,86,0.00,CLR,,0.00,WeatherDisplay:10.37,2013-03-05 11:26:00,
2013-03-05 06:31:00,31.6,27.9,29.95,NNE,22,0.0,0.0,86,0.00,CLR,,0.00,WeatherDisplay:10.37,2013-03-05 11:31:00,
2013-03-05 06:36:00,31.6,27.9,29.95,NNE,22,0.0,0.0,86,0.00,CLR,,0.00,WeatherDisplay:10.37,2013-03-05 11:36:00,
2013-03-05 06:41:00,31.6,27.9,29.95,NNE,22,0.0,0.0,86,0.00,CLR,,0.00,WeatherDisplay:10.37,2013-03-05 11:41:00,
2013-03-05 06:46:00,31.6,27.9,29.95,NNE,22,0.0,0.0,86,0.00,CLR,,0.00,WeatherDisplay:10.37,2013-03-05 11:46:00,
2013-03-05 06:51:00,31.6,27.9,29.94,NNE,22,0.0,0.0,86,0.00,CLR,,0.00,WeatherDisplay:10.37,2013-03-05 11:51:00,
2013-03-05 06:56:00,31.8,28.1,29.94,NNE,22,0.0,0.0,86,0.00,CLR,,0.00,WeatherDisplay:10.37,2013-03-05 11:56:00,
2013-03-05 07:01:00,31.8,28.1,29.94,NNE,22,0.0,0.0,86,0.00,CLR,,0.00,WeatherDisplay:10.37,2013-03-05 12:01:00,
2013-03-05 07:06:00,31.8,28.1,29.94,NNE,22,0.0,0.0,86,0.00,CLR,,0.00,WeatherDisplay:10.37,2013-03-05 12:06:00,
2013-03-05 07:11:00,31.8,28.1,29.95,NNE,22,0.0,0.0,86,0.00,CLR,,0.00,WeatherDisplay:10.37,2013-03-05 12:11:00,
2013-03-05 07:16:00,31.8,28.1,29.95,NNE,22,0.0,0.0,86,0.00,CLR,,0.00,WeatherDisplay:10.37,2013-03-05 12:16:00,
2013-03-05 07:21:00,32.2,28.5,29.95,NNE,22,0.0,0.0,86,0.00,CLR,,0.00,WeatherDisplay:10.37,2013-03-05 12:21:00,
2013-03-05 07:26:00,32.2,28.5,29.95,NNE,22,0.0,0.0,86,0.00,CLR,,0.00,WeatherDisplay:10.37,2013-03-05 12:26:00,
2013-03-05 07:31:00,32.2,28.5,29.96,NNE,22,0.0,0.0,86,0.00,CLR,,0.00,WeatherDisplay:10.37,2013-03-05 12:31:00,
2013-03-05 07:36:00,32.4,28.9,29.95,NNE,22,0.0,0.0,87,0.00,CLR,,0.00,WeatherDisplay:10.37,2013-03-05 12:36:00,
2013-03-05 07:41:00,32.4,28.9,29.95,NNE,22,0.0,0.0,87,0.00,CLR,,0.00,WeatherDisplay:10.37,2013-03-05 12:41:00,
2013-03-05 07:46:00,32.4,28.9,29.95,NNE,22,0.0,0.0,87,0.00,CLR,,0.00,WeatherDisplay:10.37,2013-03-05 12:46:00,
2013-03-05 07:51:00,32.4,28.9,29.95,NNE,22,0.0,0.0,87,0.00,CLR,,0.00,WeatherDisplay:10.37,2013-03-05 12:51:00,
2013-03-05 07:56:00,32.5,29.1,29.95,NNE,22,0.0,0.0,87,0.00,CLR,,0.00,WeatherDisplay:10.37,2013-03-05 12:56:00,
2013-03-05 08:01:00,32.5,29.1,29.94,NNE,22,0.0,0.0,87,0.00,CLR,,0.00,WeatherDisplay:10.37,2013-03-05 13:01:00,
2013-03-05 08:06:00,32.7,29.3,29.94,NNE,22,0.0,0.0,87,0.00,CLR,,0.00,WeatherDisplay:10.37,2013-03-05 13:06:00,
2013-03-05 08:11:00,32.7,29.3,29.94,NNE,22,0.0,0.0,87,0.00,CLR,,0.00,WeatherDisplay:10.37,2013-03-05 13:11:00,
2013-03-05 08:16:00,32.9,29.5,29.93,NNE,22,0.0,0.0,87,0.00,CLR,,0.00,WeatherDisplay:10.37,2013-03-05 13:16:00,
2013-03-05 08:21:00,33.1,29.6,29.93,NNE,22,0.0,0.0,87,0.00,CLR,,0.00,WeatherDisplay:10.37,2013-03-05 13:21:00,
2013-03-05 08:26:00,33.4,30.0,29.93,NNE,22,0.0,0.0,87,0.00,CLR,,0.00,WeatherDisplay:10.37,2013-03-05 13:26:00,
2013-03-05 08:31:00,33.6,30.2,29.93,NNE,22,0.0,0.0,87,0.00,CLR,,0.00,WeatherDisplay:10.37,2013-03-05 13:31:00,
2013-03-05 08:36:00,34.0,30.5,29.93,NNE,22,0.0,0.0,87,0.00,CLR,,0.00,WeatherDisplay:10.37,2013-03-05 13:36:00,
2013-03-05 08:41:00,34.2,30.7,29.93,NNE,22,0.0,0.0,87,0.00,CLR,,0.00,WeatherDisplay:10.37,2013-03-05 13:41:00,
2013-03-05 08:46:00,34.3,30.9,29.93,NNE,22,0.0,0.0,87,0.00,CLR,,0.00,WeatherDisplay:10.37,2013-03-05 13:46:00,
2013-03-05 08:51:00,34.3,30.9,29.93,NNE,22,0.0,0.0,87,0.00,CLR,,0.00,WeatherDisplay:10.37,2013-03-05 13:51:00,
2013-03-05 08:56:00,34.3,30.9,29.93,NNE,22,0.0,0.0,87,0.00,CLR,,0.00,WeatherDisplay:10.37,2013-03-05 13:56:00,
2013-03-05 09:01:00,34.5,31.0,29.93,NNE,22,0.0,0.0,87,0.00,CLR,,0.00,WeatherDisplay:10.37,2013-03-05 14:01:00,
2013-03-05 09:06:00,34.9,31.4,29.93,NNE,22,0.0,0.0,87,0.00,CLR,,0.00,WeatherDisplay:10.37,2013-03-05 14:06:00,
2013-03-05 09:11:00,34.9,31.4,29.92,NNE,22,0.0,0.0,87,0.00,CLR,,0.00,WeatherDisplay:10.37,2013-03-05 14:11:00,
2013-03-05 09:16:00,34.9,31.4,29.92,NNE,22,0.0,0.0,87,0.00,CLR,,0.00,WeatherDisplay:10.37,2013-03-05 14:16:00,
2013-03-05 09:21:00,34.9,31.4,29.92,NNE,22,0.0,0.0,87,0.00,CLR,,0.00,WeatherDisplay:10.37,2013-03-05 14:21:00,
2013-03-05 09:26:00,35.2,31.8,29.92,NNE,22,0.0,0.0,87,0.00,CLR,,0.00,WeatherDisplay:10.37,2013-03-05 14:26:00,
2013-03-05 09:31:00,35.4,31.9,29.91,NNE,22,0.0,0.0,87,0.00,CLR,,0.00,WeatherDisplay:10.37,2013-03-05 14:31:00,
2013-03-05 09:36:00,35.8,32.3,29.91,NNE,22,0.0,0.0,87,0.00,CLR,,0.00,WeatherDisplay:10.37,2013-03-05 14:36:00,
2013-03-05 09:41:00,36.1,32.6,29.91,NNE,22,1.1,1.1,87,0.00,CLR,,0.00,WeatherDisplay:10.37,2013-03-05 14:41:00,
2013-03-05 09:46:00,36.5,33.0,29.91,NNE,22,0.0,0.0,87,0.00,CLR,,0.00,WeatherDisplay:10.37,2013-03-05 14:46:00,
2013-03-05 09:51:00,36.9,33.4,29.91,NNE,22,0.0,0.0,87,0.00,CLR,,0.00,WeatherDisplay:10.37,2013-03-05 14:51:00,
2013-03-05 09:56:00,37.2,33.4,29.91,NNE,22,0.0,0.0,86,0.00,CLR,,0.00,WeatherDisplay:10.37,2013-03-05 14:56:00,
2013-03-05 10:01:00,37.2,33.7,29.91,NNE,22,0.0,0.0,87,0.00,CLR,,0.00,WeatherDisplay:10.37,2013-03-05 15:01:00,
2013-03-05 10:06:00,37.9,34.1,29.91,NNE,22,0.0,0.0,86,0.00,CLR,,0.00,WeatherDisplay:10.37,2013-03-05 15:06:00,
2013-03-05 10:11:00,37.9,34.1,29.91,NNE,22,2.3,2.3,86,0.00,CLR,,0.00,WeatherDisplay:10.37,2013-03-05 15:11:00,
2013-03-05 10:16:00,38.3,34.2,29.91,NNE,22,0.0,0.0,85,0.00,CLR,,0.00,WeatherDisplay:10.37,2013-03-05 15:16:00,
2013-03-05 10:21:00,38.5,34.4,29.91,NNE,22,0.0,0.0,85,0.00,CLR,,0.00,WeatherDisplay:10.37,2013-03-05 15:21:00,
2013-03-05 10:26:00,38.5,34.4,29.91,NNE,22,0.0,0.0,85,0.00,CLR,,0.00,WeatherDisplay:10.37,2013-03-05 15:26:00,
2013-03-05 10:31:00,38.8,34.4,29.91,NNE,22,5.8,5.8,84,0.00,CLR,,0.00,WeatherDisplay:10.37,2013-03-05 15:31:00,
2013-03-05 10:36:00,39.4,34.9,29.90,NNE,22,2.9,2.9,84,0.00,CLR,,0.00,WeatherDisplay:10.37,2013-03-05 15:36:00,
2013-03-05 10:41:00,39.6,34.8,29.90,NNE,22,0.0,0.0,83,0.00,CLR,,0.00,WeatherDisplay:10.37,2013-03-05 15:41:00,
2013-03-05 10:46:00,39.9,35.2,29.90,NNE,22,0.0,0.0,83,0.00,CLR,,0.00,WeatherDisplay:10.37,2013-03-05 15:46:00,
2013-03-05 10:51:00,40.3,35.5,29.90,NNE,22,0.0,0.0,83,0.00,CLR,,0.00,WeatherDisplay:10.37,2013-03-05 15:51:00,
2013-03-05 10:56:00,40.5,35.4,29.89,NNE,22,0.0,0.0,82,0.00,CLR,,0.00,WeatherDisplay:10.37,2013-03-05 15:56:00,
2013-03-05 11:01:00,40.8,35.7,29.90,NNE,22,0.0,0.0,82,0.00,CLR,,0.00,WeatherDisplay:10.37,2013-03-05 16:01:00,
2013-03-05 11:06:00,41.2,36.1,29.89,NNE,22,0.0,0.0,82,0.00,CLR,,0.00,WeatherDisplay:10.37,2013-03-05 16:06:00,
2013-03-05 11:11:00,41.2,35.8,29.89,NNE,22,2.2,0.0,81,0.00,CLR,,0.00,WeatherDisplay:10.37,2013-03-05 16:11:00,
2013-03-05 11:16:00,41.2,35.8,29.89,NNE,22,0.0,0.0,81,0.00,CLR,,0.00,WeatherDisplay:10.37,2013-03-05 16:16:00,
2013-03-05 11:22:00,41.0,35.6,29.89,NNE,22,2.3,2.3,81,0.00,CLR,,0.00,WeatherDisplay:10.37,2013-03-05 16:22:00,
2013-03-05 11:27:00,41.0,35.3,29.89,NNE,22,4.6,4.6,80,0.00,CLR,,0.00,WeatherDisplay:10.37,2013-03-05 16:27:00,
2013-03-05 11:32:00,41.0,35.3,29.89,NNE,22,0.0,0.0,80,0.00,CLR,,0.00,WeatherDisplay:10.37,2013-03-05 16:32:00,
2013-03-05 11:37:00,41.2,35.5,29.88,NNE,22,0.0,0.0,80,0.00,CLR,,0.00,WeatherDisplay:10.37,2013-03-05 16:37:00,
2013-03-05 11:42:00,41.5,35.8,29.88,NNE,22,2.4,2.5,80,0.00,CLR,,0.00,WeatherDisplay:10.37,2013-03-05 16:42:00,
2013-03-05 11:47:00,42.1,36.0,29.88,NNE,22,0.0,0.0,79,0.00,CLR,,0.00,WeatherDisplay:10.37,2013-03-05 16:47:00,
2013-03-05 11:52:00,42.4,36.4,29.87,NNE,22,1.1,1.5,79,0.00,CLR,,0.00,WeatherDisplay:10.37,2013-03-05 16:52:00,
2013-03-05 11:57:00,43.3,36.9,29.87,NNE,22,3.5,3.5,78,0.00,CLR,,0.00,WeatherDisplay:10.37,2013-03-05 16:57:00,
2013-03-05 12:02:00,44.2,37.8,29.87,NNE,22,1.4,1.4,78,0.00,CLR,,0.00,WeatherDisplay:10.37,2013-03-05 17:02:00,
2013-03-05 12:07:00,44.4,37.7,29.87,NNE,22,0.0,0.1,77,0.00,CLR,,0.00,WeatherDisplay:10.37,2013-03-05 17:07:00,
2013-03-05 12:12:00,45.3,38.2,29.86,NNE,22,0.0,0.0,76,0.00,CLR,,0.00,WeatherDisplay:10.37,2013-03-05 17:12:00,
2013-03-05 12:17:00,45.9,38.4,29.86,NNE,22,1.9,1.9,75,0.00,CLR,,0.00,WeatherDisplay:10.37,2013-03-05 17:17:00,
2013-03-05 12:22:00,46.2,38.4,29.85,NNE,22,0.0,0.0,74,0.00,CLR,,0.00,WeatherDisplay:10.37,2013-03-05 17:22:00,
2013-03-05 12:27:00,47.5,39.6,29.85,NNE,22,0.0,0.0,74,0.00,CLR,,0.00,WeatherDisplay:10.37,2013-03-05 17:27:00,
2013-03-05 12:32:00,47.7,39.1,29.85,NNE,22,2.3,2.3,72,0.00,CLR,,0.00,WeatherDisplay:10.37,2013-03-05 17:32:00,
2013-03-05 12:37:00,47.5,38.5,29.85,NNE,22,3.5,3.5,71,0.00,CLR,,0.00,WeatherDisplay:10.37,2013-03-05 17:37:00,
2013-03-05 12:42:00,47.1,37.8,29.84,NNE,22,0.0,0.0,70,0.00,CLR,,0.00,WeatherDisplay:10.37,2013-03-05 17:42:00,
2013-03-05 12:47:00,46.6,37.7,29.84,NNE,22,1.1,1.8,71,0.00,CLR,,0.00,WeatherDisplay:10.37,2013-03-05 17:47:00,
2013-03-05 12:52:00,46.6,37.7,29.84,NNE,22,0.0,0.0,71,0.00,CLR,,0.00,WeatherDisplay:10.37,2013-03-05 17:52:00,
2013-03-05 12:57:00,46.2,37.0,29.83,NNE,22,3.5,3.8,70,0.00,CLR,,0.00,WeatherDisplay:10.37,2013-03-05 17:57:00,
2013-03-05 13:02:00,46.0,37.2,29.83,NNE,22,0.0,0.9,71,0.00,CLR,,0.00,WeatherDisplay:10.37,2013-03-05 18:02:00,
2013-03-05 13:07:00,46.0,37.2,29.82,NNE,22,0.0,0.0,71,0.00,CLR,,0.00,WeatherDisplay:10.37,2013-03-05 18:07:00,
2013-03-05 13:12:00,46.4,37.1,29.82,NNE,22,9.2,9.2,70,0.00,CLR,,0.00,WeatherDisplay:10.37,2013-03-05 18:12:00,
2013-03-05 13:17:00,46.2,36.6,29.81,NNE,22,3.5,3.8,69,0.00,CLR,,0.00,WeatherDisplay:10.37,2013-03-05 18:17:00,
2013-03-05 13:22:00,46.0,36.4,29.81,NNE,22,1.2,1.3,69,0.00,CLR,,0.00,WeatherDisplay:10.37,2013-03-05 18:22:00,
2013-03-05 13:27:00,45.7,36.1,29.81,NNE,22,0.0,0.0,69,0.00,CLR,,0.00,WeatherDisplay:10.37,2013-03-05 18:27:00,
2013-03-05 13:32:00,45.3,35.7,29.80,NNE,22,3.5,3.5,69,0.00,CLR,,0.00,WeatherDisplay:10.37,2013-03-05 18:32:00,
2013-03-05 13:37:00,45.1,35.6,29.80,NNE,22,9.2,9.5,69,0.00,CLR,,0.00,WeatherDisplay:10.37,2013-03-05 18:37:00,
2013-03-05 13:42:00,45.0,35.0,29.80,NNE,22,3.5,3.5,68,0.00,CLR,,0.00,WeatherDisplay:10.37,2013-03-05 18:42:00,
2013-03-05 13:47:00,44.6,34.7,29.80,NNE,22,3.5,3.9,68,0.00,CLR,,0.00,WeatherDisplay:10.37,2013-03-05 18:47:00,
2013-03-05 13:52:00,44.2,34.0,29.80,NNE,22,3.5,3.5,67,0.00,CLR,,0.00,WeatherDisplay:10.37,2013-03-05 18:52:00,
2013-03-05 13:57:00,43.7,33.8,29.80,NNE,22,2.3,3.2,68,0.00,CLR,,0.00,WeatherDisplay:10.37,2013-03-05 18:57:00,
2013-03-05 14:02:00,43.0,33.1,29.79,NNE,22,1.1,1.1,68,0.00,CLR,,0.00,WeatherDisplay:10.37,2013-03-05 19:02:00,
2013-03-05 14:07:00,42.6,33.2,29.79,NNE,22,3.5,3.5,69,0.00,CLR,,0.00,WeatherDisplay:10.37,2013-03-05 19:07:00,
2013-03-05 14:12:00,42.1,32.6,29.79,NNE,22,0.0,0.0,69,0.00,CLR,,0.00,WeatherDisplay:10.37,2013-03-05 19:12:00,
2013-03-05 14:17:00,42.1,32.6,29.78,NNE,22,3.5,3.5,69,0.00,CLR,,0.00,WeatherDisplay:10.37,2013-03-05 19:17:00,
2013-03-05 14:22:00,41.9,32.8,29.78,NNE,22,1.1,1.1,70,0.00,CLR,,0.00,WeatherDisplay:10.37,2013-03-05 19:22:00,
2013-03-05 14:27:00,41.7,32.7,29.78,NNE,22,1.1,1.1,70,0.00,CLR,,0.00,WeatherDisplay:10.37,2013-03-05 19:27:00,
2013-03-05 14:32:00,41.7,33.0,29.78,NNE,22,0.0,0.0,71,0.00,CLR,,0.00,WeatherDisplay:10.37,2013-03-05 19:32:00,
2013-03-05 14:37:00,41.7,32.7,29.77,NNE,22,2.3,2.3,70,0.00,CLR,,0.00,WeatherDisplay:10.37,2013-03-05 19:37:00,
2013-03-05 14:42:00,41.7,32.3,29.77,NNE,22,1.1,1.1,69,0.00,CLR,,0.00,WeatherDisplay:10.37,2013-03-05 19:42:00,
2013-03-05 14:47:00,41.7,31.9,29.78,NNE,22,1.1,1.1,68,0.00,CLR,,0.00,WeatherDisplay:10.37,2013-03-05 19:47:00,
2013-03-05 14:52:00,41.7,31.9,29.78,NNE,22,4.6,4.6,68,0.00,CLR,,0.00,WeatherDisplay:10.37,2013-03-05 19:52:00,
2013-03-05 14:57:00,41.9,31.4,29.77,NNE,22,1.2,1.3,66,0.00,CLR,,0.00,WeatherDisplay:10.37,2013-03-05 19:57:00,
2013-03-05 15:02:00,42.1,31.5,29.77,NNE,22,5.8,5.8,66,0.00,CLR,,0.00,WeatherDisplay:10.37,2013-03-05 20:02:00,
2013-03-05 15:07:00,41.9,31.4,29.77,NNE,22,2.3,2.3,66,0.00,CLR,,0.00,WeatherDisplay:10.37,2013-03-05 20:07:00,
2013-03-05 15:12:00,41.7,31.2,29.77,NNE,22,0.0,0.0,66,0.00,CLR,,0.00,WeatherDisplay:10.37,2013-03-05 20:12:00,
2013-03-05 15:17:00,41.5,31.0,29.77,NNE,22,4.6,4.6,66,0.00,CLR,,0.00,WeatherDisplay:10.37,2013-03-05 20:17:00,
2013-03-05 15:22:00,41.5,31.0,29.76,NNE,22,2.3,0.0,66,0.00,CLR,,0.00,WeatherDisplay:10.37,2013-03-05 20:22:00,
2013-03-05 15:27:00,40.8,31.1,29.76,NNE,22,1.1,1.1,68,0.00,CLR,,0.00,WeatherDisplay:10.37,2013-03-05 20:27:00,
2013-03-05 15:32:00,40.8,31.1,29.76,NNE,22,2.7,2.7,68,0.00,CLR,,0.00,WeatherDisplay:10.37,2013-03-05 20:32:00,
2013-03-05 15:37:00,40.8,31.4,29.76,NNE,22,0.0,0.0,69,0.00,CLR,,0.00,WeatherDisplay:10.37,2013-03-05 20:37:00,
2013-03-05 15:42:00,40.6,31.6,29.75,NNE,22,1.1,1.1,70,0.00,CLR,,0.00,WeatherDisplay:10.37,2013-03-05 20:42:00,
2013-03-05 15:47:00,40.5,31.4,29.75,NNE,22,0.0,0.0,70,0.00,CLR,,0.00,WeatherDisplay:10.37,2013-03-05 20:47:00,
2013-03-05 15:52:00,40.5,31.8,29.75,NNE,22,0.0,0.0,71,0.00,CLR,,0.00,WeatherDisplay:10.37,2013-03-05 20:52:00,
2013-03-05 15:57:00,40.1,32.1,29.74,NNE,22,0.0,0.0,73,0.00,CLR,,0.00,WeatherDisplay:10.37,2013-03-05 20:57:00,
2013-03-05 16:02:00,39.9,32.3,29.74,NNE,22,0.0,2.0,74,0.00,CLR,,0.00,WeatherDisplay:10.37,2013-03-05 21:02:00,
2013-03-05 16:07:00,39.7,32.1,29.73,NNE,22,3.5,3.5,74,0.00,CLR,,0.00,WeatherDisplay:10.37,2013-03-05 21:07:00,
2013-03-05 16:12:00,39.2,32.3,29.73,NNE,22,0.0,0.0,76,0.00,CLR,,0.00,WeatherDisplay:10.37,2013-03-05 21:12:00,
2013-03-05 16:17:00,39.0,32.4,29.72,NNE,22,8.1,8.1,77,0.00,CLR,,0.00,WeatherDisplay:10.37,2013-03-05 21:17:00,
2013-03-05 16:22:00,38.7,32.7,29.72,NNE,22,3.6,3.8,79,0.00,CLR,,0.00,WeatherDisplay:10.37,2013-03-05 21:22:00,
2013-03-05 16:27:00,38.5,32.5,29.73,NNE,22,3.5,3.5,79,0.00,CLR,,0.00,WeatherDisplay:10.37,2013-03-05 21:27:00,
2013-03-05 16:32:00,38.3,32.7,29.72,NNE,22,6.5,6.5,80,0.00,CLR,,0.00,WeatherDisplay:10.37,2013-03-05 21:32:00,
2013-03-05 16:37:00,38.1,32.8,29.71,NNE,22,2.4,2.4,81,0.00,CLR,,0.00,WeatherDisplay:10.37,2013-03-05 21:37:00,
2013-03-05 16:42:00,38.1,32.8,29.71,NNE,22,3.5,3.5,81,0.00,CLR,,0.00,WeatherDisplay:10.37,2013-03-05 21:42:00,
2013-03-05 16:47:00,38.1,32.8,29.70,NNE,22,3.5,3.5,81,0.00,CLR,,0.00,WeatherDisplay:10.37,2013-03-05 21:47:00,
2013-03-05 16:52:00,37.9,32.9,29.70,NNE,22,4.6,4.8,82,0.00,CLR,,0.00,WeatherDisplay:10.37,2013-03-05 21:52:00,
2013-03-05 16:57:00,37.9,32.9,29.70,NNE,22,3.5,3.9,82,0.00,CLR,,0.00,WeatherDisplay:10.37,2013-03-05 21:57:00,
2013-03-05 17:02:00,37.9,32.9,29.69,NNE,22,10.4,10.4,82,0.00,CLR,,0.00,WeatherDisplay:10.37,2013-03-05 22:02:00,
2013-03-05 17:07:00,37.9,33.2,29.68,NNE,22,2.3,2.3,83,0.00,CLR,,0.00,WeatherDisplay:10.37,2013-03-05 22:07:00,
2013-03-05 17:12:00,37.8,33.1,29.68,NNE,22,9.2,9.2,83,0.00,CLR,,0.00,WeatherDisplay:10.37,2013-03-05 22:12:00,
2013-03-05 17:17:00,37.6,32.9,29.68,NNE,22,1.1,0.0,83,0.00,CLR,,0.00,WeatherDisplay:10.37,2013-03-05 22:17:00,
2013-03-05 17:22:00,37.6,32.9,29.68,NNE,22,0.0,1.2,83,0.00,CLR,,0.00,WeatherDisplay:10.37,2013-03-05 22:22:00,
2013-03-05 17:27:00,37.4,32.7,29.68,NNE,22,3.5,4.0,83,0.00,CLR,,0.00,WeatherDisplay:10.37,2013-03-05 22:27:00,
2013-03-05 17:32:00,37.2,32.8,29.67,NNE,22,3.5,4.0,84,0.00,CLR,,0.00,WeatherDisplay:10.37,2013-03-05 22:32:00,
2013-03-05 17:37:00,37.2,32.8,29.66,NNE,22,5.8,6.1,84,0.00,CLR,,0.00,WeatherDisplay:10.37,2013-03-05 22:37:00,
2013-03-05 17:42:00,37.2,32.8,29.65,NNE,22,6.9,6.9,84,0.00,CLR,,0.00,WeatherDisplay:10.37,2013-03-05 22:42:00,
2013-03-05 17:47:00,37.0,32.9,29.65,NNE,22,0.0,0.0,85,0.00,CLR,,0.00,WeatherDisplay:10.37,2013-03-05 22:47:00,
2013-03-05 17:52:00,36.9,32.8,29.65,NNE,22,4.6,4.6,85,0.00,CLR,,0.00,WeatherDisplay:10.37,2013-03-05 22:52:00,
2013-03-05 17:57:00,36.9,32.8,29.65,NNE,22,4.6,4.6,85,0.00,CLR,,0.00,WeatherDisplay:10.37,2013-03-05 22:57:00,
2013-03-05 18:02:00,36.7,32.6,29.65,NNE,22,8.1,8.1,85,0.00,CLR,,0.00,WeatherDisplay:10.37,2013-03-05 23:02:00,
2013-03-05 18:07:00,36.7,32.9,29.64,NNE,22,6.9,7.0,86,0.00,CLR,,0.00,WeatherDisplay:10.37,2013-03-05 23:07:00,
2013-03-05 18:12:00,36.7,32.9,29.64,NNE,22,4.6,4.6,86,0.00,CLR,,0.00,WeatherDisplay:10.37,2013-03-05 23:12:00,
2013-03-05 18:17:00,36.7,32.9,29.64,NNE,22,4.6,4.6,86,0.00,CLR,,0.00,WeatherDisplay:10.37,2013-03-05 23:17:00,
2013-03-05 18:22:00,36.7,32.9,29.64,NNE,22,8.1,8.1,86,0.00,CLR,,0.00,WeatherDisplay:10.37,2013-03-05 23:22:00,
2013-03-05 18:27:00,36.7,32.9,29.64,NNE,22,0.0,0.0,86,0.00,CLR,,0.00,WeatherDisplay:10.37,2013-03-05 23:27:00,
2013-03-05 18:32:00,36.7,32.9,29.64,NNE,22,2.3,2.3,86,0.00,CLR,,0.00,WeatherDisplay:10.37,2013-03-05 23:32:00,
2013-03-05 18:37:00,36.7,32.9,29.65,NNE,22,2.3,2.3,86,0.00,CLR,,0.00,WeatherDisplay:10.37,2013-03-05 23:37:00,
2013-03-05 18:42:00,36.7,32.9,29.65,NNE,22,6.9,6.9,86,0.00,CLR,,0.00,WeatherDisplay:10.37,2013-03-05 23:42:00,
2013-03-05 18:47:00,36.7,32.9,29.64,NNE,22,8.1,8.8,86,0.00,CLR,,0.00,WeatherDisplay:10.37,2013-03-05 23:47:00,
2013-03-05 18:52:00,36.7,33.2,29.64,NNE,22,1.7,1.8,87,0.00,CLR,,0.00,WeatherDisplay:10.37,2013-03-05 23:52:00,
2013-03-05 18:57:00,36.7,33.2,29.64,NNE,22,8.1,8.1,87,0.00,CLR,,0.00,WeatherDisplay:10.37,2013-03-05 23:57:00,
2013-03-05 19:02:00,36.7,33.2,29.64,NNE,22,1.1,1.1,87,0.00,CLR,,0.00,WeatherDisplay:10.37,2013-03-06 00:02:00,
2013-03-05 19:07:00,36.7,33.2,29.63,NNE,22,5.8,6.5,87,0.00,CLR,,0.00,WeatherDisplay:10.37,2013-03-06 00:07:00,
2013-03-05 19:12:00,36.5,33.3,29.63,NNE,22,6.9,6.9,88,0.00,CLR,,0.00,WeatherDisplay:10.37,2013-03-06 00:12:00,
2013-03-05 19:17:00,36.5,33.3,29.63,NNE,22,0.0,3.3,88,0.00,CLR,,0.00,WeatherDisplay:10.37,2013-03-06 00:17:00,
2013-03-05 19:22:00,36.3,33.1,29.62,NNE,22,2.3,2.3,88,0.00,CLR,,0.00,WeatherDisplay:10.37,2013-03-06 00:22:00,
2013-03-05 19:27:00,36.3,33.1,29.62,NNE,22,3.5,0.0,88,0.00,CLR,,0.00,WeatherDisplay:10.37,2013-03-06 00:27:00,
2013-03-05 19:32:00,36.3,33.1,29.61,NNE,22,5.8,5.8,88,0.00,CLR,,0.00,WeatherDisplay:10.37,2013-03-06 00:32:00,
2013-03-05 19:37:00,36.3,33.1,29.61,NNE,22,1.1,2.4,88,0.00,CLR,,0.00,WeatherDisplay:10.37,2013-03-06 00:37:00,
2013-03-05 19:42:00,36.3,33.1,29.61,NNE,22,5.8,5.8,88,0.00,CLR,,0.00,WeatherDisplay:10.37,2013-03-06 00:42:00,
2013-03-05 19:47:00,36.1,32.9,29.60,NNE,22,4.6,4.6,88,0.00,CLR,,0.00,WeatherDisplay:10.37,2013-03-06 00:47:00,
2013-03-05 19:52:00,36.1,32.9,29.61,NNE,22,6.9,7.2,88,0.00,CLR,,0.00,WeatherDisplay:10.37,2013-03-06 00:52:00,
2013-03-05 19:57:00,36.0,32.8,29.61,NNE,22,5.8,5.8,88,0.00,CLR,,0.00,WeatherDisplay:10.37,2013-03-06 00:57:00,
2013-03-05 20:02:00,36.0,32.8,29.60,NNE,22,5.8,5.8,88,0.00,CLR,,0.00,WeatherDisplay:10.37,2013-03-06 01:02:00,
2013-03-05 20:07:00,36.0,32.8,29.60,NNE,22,10.1,10.1,88,0.00,CLR,,0.00,WeatherDisplay:10.37,2013-03-06 01:07:00,
2013-03-05 20:12:00,35.8,32.6,29.60,NNE,22,3.5,3.5,88,0.00,CLR,,0.00,WeatherDisplay:10.37,2013-03-06 01:12:00,
2013-03-05 20:17:00,35.8,32.6,29.60,NNE,22,3.5,3.5,88,0.00,CLR,,0.00,WeatherDisplay:10.37,2013-03-06 01:17:00,
2013-03-05 20:22:00,35.8,32.6,29.60,NNE,22,4.3,0.0,88,0.00,CLR,,0.00,WeatherDisplay:10.37,2013-03-06 01:22:00,
2013-03-05 20:28:00,35.8,32.6,29.60,NNE,22,8.1,8.1,88,0.00,CLR,,0.00,WeatherDisplay:10.37,2013-03-06 01:28:00,
2013-03-05 20:33:00,35.6,32.4,29.60,NNE,22,3.5,0.0,88,0.00,CLR,,0.00,WeatherDisplay:10.37,2013-03-06 01:33:00,
2013-03-05 20:38:00,35.4,32.2,29.59,NNE,22,0.0,0.4,88,0.00,CLR,,0.00,WeatherDisplay:10.37,2013-03-06 01:38:00,
2013-03-05 20:43:00,35.4,32.2,29.59,NNE,22,8.1,8.1,88,0.00,CLR,,0.00,WeatherDisplay:10.37,2013-03-06 01:43:00,
2013-03-05 20:48:00,35.4,32.2,29.59,NNE,22,5.8,5.8,88,0.00,CLR,,0.00,WeatherDisplay:10.37,2013-03-06 01:48:00,
2013-03-05 20:53:00,35.2,32.0,29.58,NNE,22,10.6,10.6,88,0.00,CLR,,0.00,WeatherDisplay:10.37,2013-03-06 01:53:00,
2013-03-05 20:58:00,35.2,32.0,29.58,NNE,22,2.3,2.3,88,0.00,CLR,,0.00,WeatherDisplay:10.37,2013-03-06 01:58:00,
2013-03-05 21:03:00,35.1,31.9,29.57,NNE,22,0.0,0.0,88,0.00,CLR,,0.00,WeatherDisplay:10.37,2013-03-06 02:03:00,
2013-03-05 21:08:00,34.9,31.7,29.58,NNE,22,8.1,8.1,88,0.00,CLR,,0.00,WeatherDisplay:10.37,2013-03-06 02:08:00,
2013-03-05 21:13:00,34.9,31.7,29.58,NNE,22,5.8,5.8,88,0.00,CLR,,0.00,WeatherDisplay:10.37,2013-03-06 02:13:00,
2013-03-05 21:18:00,34.9,32.0,29.58,NNE,22,11.5,11.5,89,0.00,CLR,,0.00,WeatherDisplay:10.37,2013-03-06 02:18:00,
2013-03-05 21:23:00,34.9,32.0,29.57,NNE,22,3.5,3.5,89,0.00,CLR,,0.00,WeatherDisplay:10.37,2013-03-06 02:23:00,
2013-03-05 21:28:00,34.9,32.0,29.57,NNE,22,5.8,5.8,89,0.00,CLR,,0.00,WeatherDisplay:10.37,2013-03-06 02:28:00,
2013-03-05 21:33:00,34.9,32.0,29.57,NNE,22,2.3,2.3,89,0.00,CLR,,0.00,WeatherDisplay:10.37,2013-03-06 02:33:00,
2013-03-05 21:38:00,34.9,32.0,29.57,NNE,22,0.0,0.0,89,0.00,CLR,,0.00,WeatherDisplay:10.37,2013-03-06 02:38:00,
2013-03-05 21:43:00,34.9,32.0,29.57,NNE,22,3.5,3.5,89,0.00,CLR,,0.00,WeatherDisplay:10.37,2013-03-06 02:43:00,
2013-03-05 21:48:00,34.9,32.0,29.57,NNE,22,0.0,0.0,89,0.00,CLR,,0.00,WeatherDisplay:10.37,2013-03-06 02:48:00,
2013-03-05 21:53:00,34.9,32.0,29.57,NNE,22,4.6,4.8,89,0.00,CLR,,0.00,WeatherDisplay:10.37,2013-03-06 02:53:00,
2013-03-05 21:58:00,34.9,32.0,29.57,NNE,22,0.0,0.0,89,0.00,CLR,,0.00,WeatherDisplay:10.37,2013-03-06 02:58:00,
2013-03-05 22:03:00,34.9,32.0,29.57,NNE,22,2.3,2.3,89,0.00,CLR,,0.00,WeatherDisplay:10.37,2013-03-06 03:03:00,
2013-03-05 22:08:00,34.9,32.0,29.57,NNE,22,6.9,6.9,89,0.00,CLR,,0.00,WeatherDisplay:10.37,2013-03-06 03:08:00,
2013-03-05 22:13:00,34.7,31.8,29.57,NNE,22,5.8,5.8,89,0.00,CLR,,0.00,WeatherDisplay:10.37,2013-03-06 03:13:00,
2013-03-05 22:18:00,34.7,31.8,29.57,NNE,22,0.0,0.2,89,0.00,CLR,,0.00,WeatherDisplay:10.37,2013-03-06 03:18:00,
2013-03-05 22:23:00,34.7,31.8,29.58,NNE,22,1.1,1.1,89,0.00,CLR,,0.00,WeatherDisplay:10.37,2013-03-06 03:23:00,
2013-03-05 22:28:00,34.5,31.6,29.59,NNE,22,1.7,1.8,89,0.00,CLR,,0.00,WeatherDisplay:10.37,2013-03-06 03:28:00,
2013-03-05 22:33:00,34.5,31.6,29.59,NNE,22,4.6,5.3,89,0.00,CLR,,0.00,WeatherDisplay:10.37,2013-03-06 03:33:00,
2013-03-05 22:38:00,34.3,31.4,29.59,NNE,22,6.9,6.9,89,0.00,CLR,,0.00,WeatherDisplay:10.37,2013-03-06 03:38:00,
2013-03-05 22:43:00,34.3,31.4,29.59,NNE,22,1.1,1.1,89,0.00,CLR,,0.00,WeatherDisplay:10.37,2013-03-06 03:43:00,
2013-03-05 22:48:00,34.3,31.4,29.59,NNE,22,1.1,0.0,89,0.00,CLR,,0.00,WeatherDisplay:10.37,2013-03-06 03:48:00,
2013-03-05 22:53:00,34.3,31.4,29.60,NNE,22,4.6,4.6,89,0.00,CLR,,0.00,WeatherDisplay:10.37,2013-03-06 03:53:00,
2013-03-05 22:58:00,34.3,31.7,29.60,NNE,22,5.8,5.8,90,0.00,CLR,,0.00,WeatherDisplay:10.37,2013-03-06 03:58:00,
2013-03-05 23:03:00,34.3,31.7,29.60,NNE,22,3.5,3.5,90,0.00,CLR,,0.00,WeatherDisplay:10.37,2013-03-06 04:03:00,
2013-03-05 23:08:00,34.3,31.7,29.60,NNE,22,8.1,8.1,90,0.00,CLR,,0.00,WeatherDisplay:10.37,2013-03-06 04:08:00,
2013-03-05 23:13:00,34.7,32.1,29.60,NNE,22,3.5,3.5,90,0.00,CLR,,0.00,WeatherDisplay:10.37,2013-03-06 04:13:00,
2013-03-05 23:18:00,34.9,32.2,29.61,NNE,22,4.6,4.6,90,0.00,CLR,,0.00,WeatherDisplay:10.37,2013-03-06 04:18:00,
2013-03-05 23:23:00,34.9,32.2,29.61,NNE,22,13.8,14.8,90,0.00,CLR,,0.00,WeatherDisplay:10.37,2013-03-06 04:23:00,
2013-03-05 23:28:00,34.7,32.1,29.62,NNE,22,6.9,7.0,90,0.00,CLR,,0.00,WeatherDisplay:10.37,2013-03-06 04:28:00,
2013-03-05 23:33:00,34.3,31.4,29.62,NNE,22,6.9,6.9,89,0.00,CLR,,0.00,WeatherDisplay:10.37,2013-03-06 04:33:00,
2013-03-05 23:38:00,33.6,30.7,29.62,NNE,22,8.1,8.1,89,0.00,CLR,,0.00,WeatherDisplay:10.37,2013-03-06 04:38:00,
2013-03-05 23:43:00,33.1,30.2,29.63,NNE,22,5.8,5.8,89,0.00,CLR,,0.00,WeatherDisplay:10.37,2013-03-06 04:43:00,
2013-03-05 23:48:00,32.5,29.7,29.63,NNE,22,6.9,6.9,89,0.00,CLR,,0.00,WeatherDisplay:10.37,2013-03-06 04:48:00,
2013-03-05 23:53:00,32.4,29.5,29.63,NNE,22,2.3,2.3,89,0.00,CLR,,0.00,WeatherDisplay:10.37,2013-03-06 04:53:00,
2013-03-05 23:58:00,32.2,29.3,29.64,NNE,22,17.3,17.3,89,0.00,CLR,,0.00,WeatherDisplay:10.37,2013-03-06 04:58:00,